createdAt,value
2022-09-04T00:02:36.073Z,20.12
2022-09-04T00:05:20.502Z,20.24
2022-09-04T00:08:39.844Z,20.29
2022-09-04T00:11:32.793Z,20.23
2022-09-04T00:14:07.012Z,20.20
2022-09-04T00:17:02.021Z,20.16
2022-09-04T00:19:43.289Z,20.09
2022-09-04T00:22:26.473Z,20.08
2022-09-04T00:25:11.415Z,20.04
2022-09-04T00:27:45.721Z,20.05
2022-09-04T00:30:22.475Z,19.99
2022-09-04T00:33:01.541Z,19.96
2022-09-04T00:35:33.731Z,19.94
2022-09-04T00:38:48.845Z,19.92
2022-09-04T00:41:22.820Z,19.88
2022-09-04T00:44:09.135Z,19.91
2022-09-04T00:46:55.152Z,19.89
2022-09-04T00:49:36.649Z,19.89
2022-09-04T00:52:07.656Z,19.88
2022-09-04T00:55:01.726Z,19.88
2022-09-04T00:57:58.871Z,19.90
2022-09-04T01:00:28.511Z,19.85
2022-09-04T01:03:02.521Z,19.84
2022-09-04T01:05:58.175Z,19.82
2022-09-04T01:08:45.635Z,19.79
2022-09-04T01:11:43.256Z,19.78
2022-09-04T01:14:55.852Z,19.71
2022-09-04T01:17:30.254Z,19.73
2022-09-04T01:20:08.546Z,19.76
2022-09-04T01:23:33.204Z,19.76
2022-09-04T01:26:04.020Z,19.80
2022-09-04T01:28:50.777Z,19.89
2022-09-04T01:31:44.865Z,19.94
2022-09-04T01:34:25.919Z,20.03
2022-09-04T01:37:10.297Z,20.09
2022-09-04T01:39:40.674Z,20.08
2022-09-04T01:42:14.464Z,20.01
2022-09-04T01:44:43.509Z,19.99
2022-09-04T01:47:26.711Z,19.97
2022-09-04T01:50:07.688Z,19.96
2022-09-04T01:52:59.088Z,19.97
2022-09-04T01:55:48.103Z,19.99
2022-09-04T01:58:28.358Z,19.99
2022-09-04T02:01:05.851Z,20.00
2022-09-04T02:03:47.886Z,19.98
2022-09-04T02:06:44.175Z,19.97
2022-09-04T02:09:24.883Z,19.81
2022-09-04T02:12:11.234Z,19.76
2022-09-04T02:15:06.762Z,19.75
2022-09-04T02:17:56.127Z,19.73
2022-09-04T02:20:30.511Z,19.72
2022-09-04T02:23:45.449Z,19.75
2022-09-04T02:26:42.928Z,19.72
2022-09-04T02:29:33.250Z,19.69
2022-09-04T02:32:28.828Z,19.70
2022-09-04T02:35:07.973Z,19.67
2022-09-04T02:37:45.069Z,19.67
2022-09-04T02:40:37.670Z,19.69
2022-09-04T02:43:21.349Z,19.72
2022-09-04T02:46:31.437Z,19.81
2022-09-04T02:49:30.144Z,19.90
2022-09-04T02:52:36.280Z,19.95
2022-09-04T02:55:32.575Z,20.05
2022-09-04T02:58:28.051Z,19.90
2022-09-04T03:01:03.025Z,19.86
2022-09-04T03:03:40.753Z,19.83
2022-09-04T03:06:41.751Z,19.79
2022-09-04T03:09:30.787Z,19.82
2022-09-04T03:12:11.097Z,19.86
2022-09-04T03:14:52.563Z,19.88
2022-09-04T03:17:47.174Z,19.86
2022-09-04T03:20:30.744Z,19.91
2022-09-04T03:23:21.338Z,19.98
2022-09-04T03:26:16.868Z,20.01
2022-09-04T03:29:01.004Z,20.04
2022-09-04T03:31:44.491Z,20.03
2022-09-04T03:34:15.465Z,20.01
2022-09-04T03:36:43.719Z,20.02
2022-09-04T03:39:18.518Z,20.00
2022-09-04T03:42:05.226Z,20.00
2022-09-04T03:44:53.146Z,20.00
2022-09-04T03:47:36.016Z,20.01
2022-09-04T03:50:18.492Z,19.98
2022-09-04T03:52:55.996Z,19.95
2022-09-04T03:55:35.910Z,19.90
2022-09-04T03:58:38.199Z,19.86
2022-09-04T04:01:30.902Z,19.83
2022-09-04T04:04:26.825Z,19.77
2022-09-04T04:07:07.792Z,19.75
2022-09-04T04:09:44.855Z,19.71
2022-09-04T04:12:27.511Z,19.66
2022-09-04T04:15:22.236Z,19.62
2022-09-04T04:18:17.045Z,19.55
2022-09-04T04:21:06.359Z,19.51
2022-09-04T04:24:12.445Z,19.46
2022-09-04T04:26:50.653Z,19.45
2022-09-04T04:29:43.284Z,19.43
2022-09-04T04:32:50.233Z,19.52
2022-09-04T04:35:49.681Z,19.51
2022-09-04T04:38:52.408Z,19.43
2022-09-04T04:41:30.901Z,19.28
2022-09-04T04:44:16.890Z,19.25
2022-09-04T04:46:45.847Z,19.28
2022-09-04T04:49:23.248Z,19.24
2022-09-04T04:52:19.053Z,19.14
2022-09-04T04:54:53.106Z,19.12
2022-09-04T04:57:49.156Z,19.16
2022-09-04T05:00:31.471Z,19.19
2022-09-04T05:03:23.559Z,19.23
2022-09-04T05:06:09.573Z,19.26
2022-09-04T05:08:40.873Z,19.30
2022-09-04T05:11:34.569Z,19.39
2022-09-04T05:14:24.550Z,19.48
2022-09-04T05:17:14.291Z,19.53
2022-09-04T05:20:12.301Z,19.58
2022-09-04T05:22:51.380Z,19.61
2022-09-04T05:25:47.179Z,19.66
2022-09-04T05:28:48.127Z,19.74
2022-09-04T05:31:31.704Z,19.79
2022-09-04T05:34:04.638Z,19.92
2022-09-04T05:37:03.433Z,20.04
2022-09-04T05:39:40.278Z,20.18
2022-09-04T05:42:35.325Z,20.25
2022-09-04T05:45:24.730Z,20.32
2022-09-04T05:48:22.699Z,20.46
2022-09-04T05:51:03.187Z,20.50
2022-09-04T05:54:00.876Z,20.49
2022-09-04T05:56:52.473Z,20.40
2022-09-04T05:59:44.118Z,20.45
2022-09-04T06:02:51.212Z,20.43
2022-09-04T06:05:33.975Z,20.43
2022-09-04T06:08:08.220Z,20.49
2022-09-04T06:10:57.948Z,20.69
2022-09-04T06:13:41.005Z,20.58
2022-09-04T06:16:22.319Z,20.68
2022-09-04T06:18:56.586Z,20.77
2022-09-04T06:21:42.803Z,20.89
2022-09-04T06:24:29.200Z,20.94
2022-09-04T06:27:14.688Z,20.90
2022-09-04T06:29:57.568Z,20.82
2022-09-04T06:32:53.482Z,20.96
2022-09-04T06:35:50.068Z,21.11
2022-09-04T06:38:30.267Z,21.22
2022-09-04T06:41:13.350Z,21.33
2022-09-04T06:44:18.840Z,21.53
2022-09-04T06:47:29.297Z,21.61
2022-09-04T06:50:09.461Z,22.20
2022-09-04T06:53:06.780Z,22.83
2022-09-04T06:55:50.661Z,23.64
2022-09-04T06:58:18.952Z,24.11
2022-09-04T07:01:11.779Z,24.35
2022-09-04T07:03:51.017Z,24.45
2022-09-04T07:06:37.675Z,24.54
2022-09-04T07:09:16.339Z,24.61
2022-09-04T07:12:06.372Z,24.61
2022-09-04T07:14:46.511Z,24.23
2022-09-04T07:17:39.456Z,24.12
2022-09-04T07:20:27.002Z,24.11
2022-09-04T07:23:02.740Z,24.07
2022-09-04T07:25:37.090Z,24.11
2022-09-04T07:28:17.027Z,24.37
2022-09-04T07:31:01.192Z,24.53
2022-09-04T07:33:46.042Z,25.12
2022-09-04T07:36:37.224Z,25.79
2022-09-04T07:39:39.243Z,26.57
2022-09-04T07:42:13.307Z,27.70
2022-09-04T07:44:52.135Z,29.03
2022-09-04T07:47:35.412Z,29.88
2022-09-04T07:50:22.148Z,30.09
2022-09-04T07:53:15.967Z,30.82
2022-09-04T07:55:51.801Z,31.17
2022-09-04T07:58:41.230Z,31.88
2022-09-04T08:01:35.957Z,31.79
2022-09-04T08:04:25.168Z,31.10
2022-09-04T08:07:02.842Z,30.61
2022-09-04T08:09:55.257Z,30.14
2022-09-04T08:12:32.656Z,29.32
2022-09-04T08:15:23.321Z,29.20
2022-09-04T08:17:51.706Z,28.50
2022-09-04T08:20:55.149Z,28.34
2022-09-04T08:23:35.544Z,27.67
2022-09-04T08:26:14.276Z,27.82
2022-09-04T08:28:57.595Z,28.34
2022-09-04T08:31:44.491Z,29.04
2022-09-04T08:34:43.620Z,29.26
2022-09-04T08:37:34.652Z,29.14
2022-09-04T08:40:25.406Z,29.47
2022-09-04T08:43:15.418Z,29.46
2022-09-04T08:45:49.756Z,29.87
2022-09-04T08:48:42.607Z,30.08
2022-09-04T08:51:36.385Z,29.41
2022-09-04T08:54:23.351Z,29.38
2022-09-04T08:57:03.646Z,29.68
2022-09-04T08:59:53.381Z,29.21
2022-09-04T09:02:34.271Z,29.34
2022-09-04T09:05:10.071Z,29.82
2022-09-04T09:08:06.823Z,29.93
2022-09-04T09:11:12.079Z,28.70
2022-09-04T09:14:01.926Z,28.19
2022-09-04T09:16:33.496Z,27.85
2022-09-04T09:19:25.123Z,27.63
2022-09-04T09:22:14.740Z,28.38
2022-09-04T09:25:01.776Z,28.34
2022-09-04T09:27:51.708Z,28.13
2022-09-04T09:30:23.898Z,27.99
2022-09-04T09:33:17.014Z,27.73
2022-09-04T09:36:30.123Z,27.57
2022-09-04T09:38:58.270Z,28.16
2022-09-04T09:42:02.839Z,28.29
2022-09-04T09:45:06.284Z,28.75
2022-09-04T09:47:59.239Z,28.75
2022-09-04T09:50:51.673Z,28.90
2022-09-04T09:53:47.231Z,28.66
2022-09-04T09:56:53.693Z,29.01
2022-09-04T09:59:30.970Z,28.65
2022-09-04T10:02:17.022Z,28.53
2022-09-04T10:05:00.084Z,28.53
2022-09-04T10:07:40.235Z,28.65
2022-09-04T10:10:47.678Z,28.75
2022-09-04T10:13:45.461Z,28.86
2022-09-04T10:16:45.569Z,28.90
2022-09-04T10:19:39.382Z,28.63
2022-09-04T10:22:35.336Z,28.14
2022-09-04T10:25:28.625Z,27.66
2022-09-04T10:27:59.831Z,27.75
2022-09-04T10:30:57.079Z,27.98
2022-09-04T10:33:55.715Z,27.86
2022-09-04T10:36:55.303Z,27.87
2022-09-04T10:39:53.338Z,28.15
2022-09-04T10:42:47.883Z,28.20
2022-09-04T10:45:30.729Z,28.20
2022-09-04T10:48:20.238Z,28.45
2022-09-04T10:51:12.406Z,28.69
2022-09-04T10:54:08.055Z,28.76
2022-09-04T10:56:51.410Z,28.73
2022-09-04T10:59:52.193Z,28.93
2022-09-04T11:02:41.366Z,29.18
2022-09-04T11:05:37.882Z,28.66
2022-09-04T11:08:42.487Z,28.29
2022-09-04T11:11:26.838Z,28.54
2022-09-04T11:14:28.934Z,28.66
2022-09-04T11:17:28.525Z,29.14
2022-09-04T11:20:34.590Z,29.62
2022-09-04T11:23:40.352Z,29.79
2022-09-04T11:26:48.709Z,29.92
2022-09-04T11:29:30.468Z,30.02
2022-09-04T11:32:35.746Z,30.51
2022-09-04T11:35:15.214Z,31.07
2022-09-04T11:38:10.618Z,31.36
2022-09-04T11:40:57.655Z,31.38
2022-09-04T11:44:03.806Z,31.39
2022-09-04T11:46:40.853Z,31.13
2022-09-04T11:49:35.488Z,31.46
2022-09-04T11:52:12.367Z,31.44
2022-09-04T11:55:18.855Z,31.54
2022-09-04T11:57:55.915Z,31.86
2022-09-04T12:00:24.331Z,31.21
2022-09-04T12:03:10.683Z,30.89
2022-09-04T12:06:02.434Z,31.25
2022-09-04T12:08:46.513Z,31.48
2022-09-04T12:11:39.589Z,31.31
2022-09-04T12:14:15.130Z,31.43
2022-09-04T12:17:21.407Z,31.40
2022-09-04T12:20:08.219Z,31.82
2022-09-04T12:22:55.015Z,32.42
2022-09-04T12:25:49.716Z,32.26
2022-09-04T12:29:06.546Z,31.45
2022-09-04T12:31:51.214Z,31.72
2022-09-04T12:34:19.757Z,31.56
2022-09-04T12:36:52.136Z,31.19
2022-09-04T12:39:50.950Z,31.56
2022-09-04T12:42:45.274Z,32.15
2022-09-04T12:45:36.548Z,32.23
2022-09-04T12:48:19.647Z,31.89
2022-09-04T12:50:47.840Z,32.08
2022-09-04T12:53:32.810Z,32.41
2022-09-04T12:56:15.824Z,32.65
2022-09-04T12:58:55.879Z,32.43
2022-09-04T13:01:36.353Z,32.04
2022-09-04T13:04:04.616Z,30.98
2022-09-04T13:06:49.215Z,30.92
2022-09-04T13:09:36.147Z,30.31
2022-09-04T13:12:53.537Z,29.99
2022-09-04T13:15:53.687Z,29.85
2022-09-04T13:18:24.639Z,29.91
2022-09-04T13:21:13.959Z,29.41
2022-09-04T13:24:01.061Z,29.11
2022-09-04T13:26:36.402Z,29.00
2022-09-04T13:29:23.257Z,28.76
2022-09-04T13:32:19.414Z,28.59
2022-09-04T13:35:19.786Z,28.64
2022-09-04T13:38:10.955Z,29.66
2022-09-04T13:40:55.663Z,30.40
2022-09-04T13:43:35.617Z,30.77
2022-09-04T13:46:10.845Z,31.10
2022-09-04T13:48:59.896Z,31.05
2022-09-04T13:51:43.249Z,30.40
2022-09-04T13:54:31.446Z,29.63
2022-09-04T13:57:27.890Z,29.56
2022-09-04T14:00:03.769Z,29.89
2022-09-04T14:02:36.588Z,30.42
2022-09-04T14:05:20.513Z,30.51
2022-09-04T14:07:57.133Z,30.35
2022-09-04T14:10:46.544Z,29.85
2022-09-04T14:13:37.994Z,29.40
2022-09-04T14:16:09.775Z,29.00
2022-09-04T14:18:55.848Z,28.87
2022-09-04T14:22:02.521Z,29.18
2022-09-04T14:24:56.319Z,29.49
2022-09-04T14:27:53.404Z,29.76
2022-09-04T14:30:23.059Z,29.78
2022-09-04T14:33:07.469Z,29.52
2022-09-04T14:35:54.125Z,29.40
2022-09-04T14:39:18.853Z,29.33
2022-09-04T14:42:13.791Z,28.96
2022-09-04T14:45:01.713Z,28.56
2022-09-04T14:47:47.447Z,28.39
2022-09-04T14:50:20.396Z,28.31
2022-09-04T14:52:53.825Z,28.21
2022-09-04T14:56:05.372Z,28.10
2022-09-04T14:58:52.267Z,28.21
2022-09-04T15:01:23.582Z,28.13
2022-09-04T15:04:13.358Z,28.18
2022-09-04T15:07:07.934Z,28.11
2022-09-04T15:09:41.089Z,28.10
2022-09-04T15:12:38.655Z,28.12
2022-09-04T15:15:31.693Z,28.01
2022-09-04T15:18:16.063Z,27.89
2022-09-04T15:21:04.308Z,27.81
2022-09-04T15:23:45.031Z,27.78
2022-09-04T15:26:31.918Z,27.80
2022-09-04T15:29:27.208Z,27.78
2022-09-04T15:32:09.415Z,27.69
2022-09-04T15:34:42.957Z,27.73
2022-09-04T15:37:24.773Z,27.77
2022-09-04T15:40:04.994Z,27.91
2022-09-04T15:42:39.901Z,27.90
2022-09-04T15:45:19.713Z,27.83
2022-09-04T15:48:22.164Z,27.77
2022-09-04T15:51:27.982Z,27.64
2022-09-04T15:54:11.859Z,27.41
2022-09-04T15:56:52.016Z,27.28
2022-09-04T15:59:29.719Z,27.27
2022-09-04T16:02:19.761Z,27.16
2022-09-04T16:05:02.217Z,27.14
2022-09-04T16:07:49.579Z,27.11
2022-09-04T16:10:28.575Z,27.17
2022-09-04T16:13:01.653Z,27.18
2022-09-04T16:15:32.546Z,27.23
2022-09-04T16:18:10.678Z,27.17
2022-09-04T16:21:04.950Z,27.12
2022-09-04T16:23:38.379Z,27.06
2022-09-04T16:26:17.929Z,27.03
2022-09-04T16:28:55.931Z,27.00
2022-09-04T16:31:37.203Z,26.92
2022-09-04T16:34:17.302Z,26.91
2022-09-04T16:37:01.959Z,26.83
2022-09-04T16:39:59.042Z,26.82
2022-09-04T16:42:41.343Z,26.83
2022-09-04T16:45:27.507Z,26.81
2022-09-04T16:47:59.152Z,26.75
2022-09-04T16:51:40.362Z,26.73
2022-09-04T16:54:32.529Z,26.67
2022-09-04T16:57:18.657Z,26.65
2022-09-04T16:59:58.766Z,26.58
2022-09-04T17:02:50.902Z,26.49
2022-09-04T17:05:40.061Z,26.37
2022-09-04T17:08:08.455Z,26.31
2022-09-04T17:11:08.787Z,26.21
2022-09-04T17:14:08.449Z,26.17
2022-09-04T17:16:52.811Z,26.11
2022-09-04T17:19:22.073Z,26.02
2022-09-04T17:26:39.790Z,25.91
2022-09-04T17:29:08.804Z,25.62
2022-09-04T17:29:16.212Z,25.74
2022-09-04T17:31:48.690Z,25.48
2022-09-04T17:40:16.422Z,25.40
2022-09-04T17:40:50.144Z,25.23
2022-09-04T17:41:38.175Z,25.08
2022-09-04T17:44:02.359Z,24.93
2022-09-04T17:46:39.032Z,24.85
2022-09-04T17:49:33.247Z,24.73
2022-09-04T17:52:08.851Z,24.57
2022-09-04T17:54:49.102Z,24.46
2022-09-04T17:57:46.363Z,24.31
2022-09-04T18:00:24.024Z,24.21
2022-09-04T18:03:16.296Z,24.06
2022-09-04T18:05:53.735Z,23.94
2022-09-04T18:08:30.249Z,23.84
2022-09-04T18:11:09.173Z,23.76
2022-09-04T18:13:52.111Z,23.71
2022-09-04T18:17:11.746Z,23.59
2022-09-04T18:19:48.864Z,23.61
2022-09-04T18:22:38.438Z,23.57
2022-09-04T18:25:40.927Z,23.51
2022-09-04T18:28:12.837Z,23.44
2022-09-04T18:37:06.289Z,23.37
2022-09-04T18:37:19.201Z,23.27
2022-09-04T18:37:47.265Z,23.15
2022-09-04T18:43:40.011Z,23.08
2022-09-04T18:50:31.107Z,23.03
2022-09-04T18:50:33.211Z,22.91
2022-09-04T18:50:39.646Z,22.98
2022-09-04T18:52:20.063Z,22.80
2022-09-04T18:54:57.781Z,22.72
2022-09-04T18:57:33.753Z,22.62
2022-09-04T19:00:10.375Z,22.59
2022-09-04T19:02:50.756Z,22.53
2022-09-04T19:05:24.572Z,22.51
2022-09-04T19:08:01.500Z,22.47
2022-09-04T19:10:35.960Z,22.39
2022-09-04T19:13:24.332Z,22.34
2022-09-04T19:15:59.286Z,22.31
2022-09-04T19:18:33.463Z,22.28
2022-09-04T19:21:10.702Z,22.24
2022-09-04T19:23:59.044Z,22.19
2022-09-04T19:26:46.582Z,22.13
2022-09-04T19:29:46.360Z,22.12
2022-09-04T19:32:20.391Z,22.11
2022-09-04T19:35:15.886Z,22.11
2022-09-04T19:45:02.325Z,22.11
2022-09-04T19:46:00.183Z,22.18
2022-09-04T19:46:11.593Z,22.16
2022-09-04T19:47:27.644Z,22.18
2022-09-04T19:53:31.986Z,22.17
2022-09-04T19:53:37.349Z,22.18
2022-09-04T19:56:24.774Z,22.16
2022-09-04T19:59:25.959Z,22.18
2022-09-04T20:02:03.070Z,22.16
2022-09-04T20:04:41.100Z,22.10
2022-09-04T20:07:32.098Z,22.06
2022-09-04T20:10:27.081Z,22.03
2022-09-04T20:13:18.467Z,21.98
2022-09-04T20:16:21.486Z,21.91
2022-09-04T20:19:16.738Z,21.87
2022-09-04T20:22:05.016Z,21.85
2022-09-04T20:25:11.353Z,21.84
2022-09-04T20:27:47.480Z,21.82
2022-09-04T20:30:24.995Z,21.83
2022-09-04T20:32:58.661Z,21.85
2022-09-04T20:35:49.036Z,21.84
2022-09-04T20:38:30.369Z,21.79
2022-09-04T20:41:18.686Z,21.77
2022-09-04T20:43:53.306Z,21.75
2022-09-04T20:52:42.143Z,21.75
2022-09-04T20:52:54.738Z,21.77
2022-09-04T20:52:58.059Z,21.77
2022-09-04T20:55:36.335Z,21.81
2022-09-04T21:03:05.399Z,21.81
2022-09-04T21:03:20.862Z,21.68
2022-09-04T21:04:11.420Z,21.58
2022-09-04T21:06:56.880Z,21.44
2022-09-04T21:09:39.036Z,21.37
2022-09-04T21:12:28.092Z,21.33
2022-09-04T21:15:10.661Z,21.47
2022-09-04T21:17:41.694Z,21.71
2022-09-04T21:20:32.000Z,21.93
2022-09-04T21:23:17.678Z,21.98
2022-09-04T21:26:05.192Z,22.04
2022-09-04T21:28:54.277Z,22.11
2022-09-04T21:31:44.397Z,22.12
2022-09-04T21:34:16.155Z,22.19
2022-09-04T21:37:13.851Z,22.24
2022-09-04T21:39:42.600Z,22.40
2022-09-04T21:42:33.661Z,22.45
2022-09-04T21:45:19.905Z,22.47
2022-09-04T21:48:17.824Z,22.54
2022-09-04T21:51:28.345Z,22.58
2022-09-04T21:55:42.532Z,22.66
2022-09-04T22:02:31.069Z,22.69
2022-09-04T22:02:36.669Z,22.66
2022-09-04T22:04:08.320Z,22.65
2022-09-04T22:10:01.868Z,22.65
2022-09-04T22:13:29.417Z,22.65
2022-09-04T22:13:41.778Z,22.65
2022-09-04T22:16:13.491Z,22.61
2022-09-04T22:19:40.088Z,22.58
2022-09-04T22:22:26.784Z,22.58
2022-09-04T22:24:57.674Z,22.58
2022-09-04T22:28:07.411Z,22.58
2022-09-04T22:30:44.891Z,22.47
2022-09-04T22:34:14.370Z,22.42
2022-09-04T22:37:01.548Z,22.36
2022-09-04T22:40:09.423Z,22.32
2022-09-04T22:42:43.522Z,22.30
2022-09-04T22:45:49.160Z,22.27
2022-09-04T22:48:28.495Z,22.32
2022-09-04T22:51:03.671Z,22.32
2022-09-04T22:53:45.863Z,22.34
2022-09-04T22:56:28.980Z,22.30
2022-09-04T22:59:34.837Z,22.15
2022-09-04T23:02:18.401Z,22.07
2022-09-04T23:04:59.223Z,22.02
2022-09-04T23:12:15.542Z,22.02
2022-09-04T23:13:59.758Z,21.98
2022-09-04T23:14:06.842Z,21.93
2022-09-04T23:16:49.311Z,21.87
2022-09-04T23:26:31.132Z,21.84
2022-09-04T23:26:36.538Z,21.77
2022-09-04T23:26:42.858Z,21.77
2022-09-04T23:29:07.011Z,21.73
2022-09-04T23:32:07.166Z,21.70
2022-09-04T23:34:40.720Z,21.66
2022-09-04T23:37:35.619Z,21.61
2022-09-04T23:40:28.549Z,21.52
2022-09-04T23:42:56.633Z,21.49
2022-09-04T23:46:00.945Z,21.49
2022-09-04T23:48:54.792Z,21.51
2022-09-04T23:51:42.012Z,21.46
2022-09-04T23:54:41.835Z,21.42
2022-09-04T23:57:44.115Z,21.41
